Hlavní strana
METAR-TAF:

METAR-TAF

Letiště :

Tunis, Tunisko

zeměpisná šířka: 36-50N, zeměpisná délka: 010-14E, výška: 3 m

Aktuální stav počasí

Zpráva byla vytvořena před 16 minutami, v 11:00 UTC
Jižní vítr 6 kt, proměnlivý mezi jihovýchodním a jihojihozápadním
Teplota 16°C
Vlhkost vzduchu 63%
Tlak 1031 hPa
Viditelnost: 6000 m
Polojasno ve výšce 2000 ft
Oblačno až skoro zataženo ve výšce 2600 ft

METAR: DTTA 251100Z 18006KT 130V210 6000 SCT020 BKN026 16/09 Q1031

Čas: 12:16 (11:16 UTC)

Předpověď počasí

Zpráva byla vytvořena před 6 hodinami a 16 minutami, v 05:00 UTC
Předpověď platná od 25 v 06 UTC do 26 v 06 UTC
vítr z různých směrů 3 kt
Viditelnost: 3000 m
Polojasno ve výšce 1600 ft
kouřmo
Změna
od 25 v 07 UTC do 25 v 09 UTC
Viditelnost: 5000 m
Změna
od 25 v 14 UTC do 25 v 16 UTC
Východní vítr 10 kt
Změna
od 25 v 18 UTC do 25 v 20 UTC
vítr z různých směrů 3 kt

TAF: DTTA 250500Z 2506/2606 VRB03KT 3000 BR SCT016 BECMG 2507/2509 5000 BECMG 2514/2516 08010KT BECMG 2518/2520 VRB03KT

Stav a předpovědi počasí z více než 4 000 letišť (zprávy METAR a TAF).

Červené a žluté tečky na mapě představují dostupné meteorologické stanice.

Když kurzor umístíte na tečku, zobrazí se název stanice.

Pak kliknutím zobrazíte stav a předpověď počasí.

Chcete-li změnit mapu, kliknutím na zelené tlačítko se znaménkem +mapu přiblížíte, kliknutím na zelené tlačítko se znaménkem – mapu oddálíte a kliknutím na zelené šipky přejdete na sousední mapy.


METAR-TAF: